Nearby METAR Reports

 

KMTN - Baltimore/Martin, Maryland, USA
Distance from station: SSE 8mi, 13km
Updated: Mon, 28-Jul-2014 9:55am EDT
Partly cloudy
Partly cloudy
 Wind from W
Wind: W 21 mph , 33 km/h, Gust: 29 mph , 46 km/h
Temperature: 81°F , 27°C
Heat Index: 83°F , 28°C
Dew Point: 66°F , 19°C
Humidity: 62%
Barometer: 29.63 inHg , 1003.4 hPa
Clouds: Partly cloudy
Visibility: 10 miles , 16 km
Cloud details: Partly cloudy 4000 ft
Partly cloudy 15000 ft
2014/07/28 13:55 KMTN 281355Z 26018G25KT 10SM SCT040 SCT150 27/19 A2963
KDMH - Baltimore/Dwntwn, Maryland, USA
Distance from station: SW 12mi, 19km
Updated: Mon, 28-Jul-2014 9:54am EDT

 
Temperature: 81°F , 27°C
Heat Index: 82°F , 28°C
Dew Point: 63°F , 17°C
Humidity: 54%
Barometer: 29.62 inHg , 1003 hPa
2014/07/28 13:54 KDMH 281354Z AUTO 27/17 A2962 RMK AO1 SLP031 T02720167
 
KBWI - Balto/Wash Intl, Maryland, USA
Distance from station: SSW 20mi, 33km
Updated: Mon, 28-Jul-2014 9:54am EDT
Partly cloudy
Partly cloudy
 Wind from W
Wind: W 18 mph , 30 km/h, Gust: 28 mph , 44 km/h
Temperature: 81°F , 27°C
Heat Index: 82°F , 28°C
Dew Point: 63°F , 17°C
Humidity: 54%
Barometer: 29.62 inHg , 1003 hPa
Clouds: Partly cloudy
Visibility: 10 miles , 16 km
Cloud details: Few Clouds 4200 ft
Partly cloudy 7000 ft
2014/07/28 13:54 KBWI 281354Z 28016G24KT 10SM FEW042 SCT070 27/17 A2962 RMK AO2 SLP029 T02670167
KDMW - Carroll Cnty, Maryland, USA
Distance from station: WNW 30mi, 48km
Updated: Mon, 28-Jul-2014 10:10am EDT
Partly cloudy
Partly cloudy
 Wind from WNW
Wind: WNW 13 mph , 20 km/h, Gust: 24 mph , 39 km/h
Temperature: 73°F , 23°C
Dew Point: 63°F , 17°C
Humidity: 69%
Barometer: 29.67 inHg , 1004.7 hPa
Clouds: Partly cloudy
Visibility: 10 miles , 16 km
Cloud details: Partly cloudy 11000 ft
2014/07/28 14:10 KDMW 281410Z AUTO 30011G21KT 10SM SCT110 23/17 A2967 RMK AO2
 
KNAK - Annapolis/Naval, Maryland, USA
Distance from station: S 30mi, 48km
Updated: Mon, 28-Jul-2014 9:54am EDT
Few Clouds
Few Clouds
 Wind from W
Wind: W 12 mph , 19 km/h, Gust: 21 mph , 33 km/h
Temperature: 81°F , 27°C
Heat Index: 82°F , 28°C
Dew Point: 63°F , 17°C
Humidity: 54%
Barometer: 29.62 inHg , 1003 hPa
Clouds: Few Clouds
Visibility: 10 miles , 16 km
Cloud details: Few Clouds 4800 ft
2014/07/28 13:54 KNAK 281354Z AUTO 28010G18KT 10SM FEW048 27/17 A2962 RMK AO2 SLP033 T02720172
KW29 - Stevensville, Maryland, USA
Distance from station: SSE 31mi, 50km
Updated: Mon, 28-Jul-2014 10:09am EDT

 Wind from W
Wind: W 16 mph , 26 km/h, Gust: 23 mph , 37 km/h
Temperature: 79°F , 26°C
Dew Point: 61°F , 16°C
Humidity: 54%
Barometer: 29.63 inHg , 1003.4 hPa
Visibility: 10 miles , 16 km
2014/07/28 14:09 KW29 281409Z AUTO 28014G20KT 10SM 26/16 A2963 RMK AO1
 
KCGS - College Park, Maryland, USA
Distance from station: SW 38mi, 61km
Updated: Mon, 28-Jul-2014 10:10am EDT
Partly cloudy
Partly cloudy
 Wind from W
Wind: W 12 mph , 19 km/h, Gust: 21 mph , 33 km/h
Temperature: 82°F , 28°C
Heat Index: 82°F , 28°C
Dew Point: 61°F , 16°C
Humidity: 48%
Barometer: 29.64 inHg , 1003.7 hPa
Clouds: Partly cloudy
Visibility: 10 miles , 16 km
Cloud details: Partly cloudy 5000 ft
Partly cloudy 9500 ft
2014/07/28 14:10 KCGS 281410Z AUTO 27010G18KT 230V300 10SM SCT050 SCT095 28/16 A2964 RMK AO1
KGAI - Gaithersburg, Maryland, USA
Distance from station: WSW 40mi, 65km
Updated: Mon, 28-Jul-2014 10:15am EDT
Mostly cloudy
Mostly cloudy
 Wind from WNW
Wind: WNW 14 mph , 22 km/h, Gust: 22 mph , 35 km/h
Temperature: 77°F , 25°C
Dew Point: 63°F , 17°C
Humidity: 61%
Barometer: 29.70 inHg , 1005.8 hPa
Clouds: Mostly cloudy
Visibility: 10 miles , 16 km
Cloud details: Few Clouds 6500 ft
Few Clouds 7000 ft
Mostly cloudy 9000 ft
2014/07/28 14:15 KGAI 281415Z AUTO 29012G19KT 10SM FEW065 FEW070 BKN090 25/17 A2970 RMK AO1
 
KTHV - York, Pennsylvania, USA
Distance from station: NNW 40mi, 65km
Updated: Mon, 28-Jul-2014 9:53am EDT
Partly cloudy
Partly cloudy
 Wind from WNW
Wind: WNW 13 mph , 20 km/h, Gust: 23 mph , 37 km/h
Temperature: 73°F , 23°C
Dew Point: 61°F , 16°C
Humidity: 65%
Barometer: 29.64 inHg , 1003.7 hPa
Clouds: Partly cloudy
Visibility: 10 miles , 16 km
Cloud details: Few Clouds 2700 ft
Partly cloudy 3600 ft
Partly cloudy 4500 ft
2014/07/28 13:53 KTHV 281353Z AUTO 29011G20KT 10SM FEW027 SCT036 SCT045 23/16 A2964 RMK AO2 SLP034 T02280161
KFDK - Frederick, Maryland, USA
Distance from station: W 47mi, 75km
Updated: Mon, 28-Jul-2014 9:50am EDT
Mostly cloudy
Mostly cloudy
 Wind from WNW
Wind: WNW 13 mph , 20 km/h, Gust: 16 mph , 26 km/h
Temperature: 79°F , 26°C
Dew Point: 66°F , 19°C
Humidity: 65%
Barometer: 29.68 inHg , 1005.1 hPa
Clouds: Mostly cloudy
Visibility: 10 miles , 16 km
Cloud details: Partly cloudy 3300 ft
Mostly cloudy 4200 ft
2014/07/28 13:50 KFDK 281350Z 30011G14KT 10SM SCT033 BKN042 26/19 A2968
 
KESN - Easton/Newnam, Maryland, USA
Distance from station: SSE 48mi, 78km
Updated: Mon, 28-Jul-2014 9:58am EDT
Partly cloudy
Partly cloudy
 Wind from W
Wind: W 10 mph , 17 km/h, Gust: 17 mph , 28 km/h
Temperature: 84°F , 29°C
Heat Index: 89°F , 32°C
Dew Point: 72°F , 22°C
Humidity: 66%
Barometer: 29.66 inHg , 1004.4 hPa
Clouds: Partly cloudy
Visibility: 10 miles , 16 km
Cloud details: Partly cloudy 3100 ft
Partly cloudy 5500 ft
2014/07/28 13:58 KESN 281358Z 28009G15KT 10SM SCT031 SCT055 29/22 A2966
KDCA - Washington/Natl, Washington D.c., USA
Distance from station: SW 49mi, 79km
Updated: Mon, 28-Jul-2014 9:52am EDT
Mostly cloudy
Mostly cloudy
 Wind from WNW
Wind: WNW 22 mph , 35 km/h, Gust: 30 mph , 48 km/h
Temperature: 82°F , 28°C
Heat Index: 82°F , 28°C
Dew Point: 61°F , 16°C
Humidity: 48%
Barometer: 29.65 inHg , 1004.1 hPa
Clouds: Mostly cloudy
Visibility: 10 miles , 16 km
Cloud details: Partly cloudy 5000 ft
Mostly cloudy 10000 ft
2014/07/28 13:52 KDCA 281352Z 30019G26KT 10SM SCT050 BKN100 28/16 A2965 RMK AO2 PK WND 31026/1345 SLP040 T02830156
 
KLNS - Lancaster, Pennsylvania, USA
Distance from station: N 49mi, 79km
Updated: Mon, 28-Jul-2014 9:53am EDT
Overcast
Overcast
 Wind from W
Wind: W 13 mph , 20 km/h
Temperature: 73°F , 23°C
Dew Point: 66°F , 19°C
Humidity: 78%
Barometer: 29.61 inHg , 1002.7 hPa
Clouds: Overcast
Visibility: 10 miles , 16 km
Cloud details: Few Clouds 2400 ft
Few Clouds 3000 ft
Overcast 4700 ft
2014/07/28 13:53 KLNS 281353Z 28011KT 10SM FEW024 FEW030 OVC047 23/19 A2961 RMK AO2 SLP025 T02330194
KILG - Wilmington, Delaware, USA
Distance from station: ENE 50mi, 81km
Updated: Mon, 28-Jul-2014 9:51am EDT
Clear
Clear
 Wind from W
Wind: W 14 mph , 22 km/h, Gust: 23 mph , 37 km/h
Temperature: 79°F , 26°C
Dew Point: 68°F , 20°C
Humidity: 70%
Barometer: 29.61 inHg , 1002.7 hPa
Clouds: Clear
Visibility: 10 miles , 16 km
2014/07/28 13:51 KILG 281351Z 28012G20KT 10SM CLR 26/20 A2961 RMK AO2 SLP025 T02560200